Ackley, Iowa
Current Conditions -  °F | °C
As of 10:15 PM on Sunday 23 Nov 2014 (Local Time) from KIFA Reporting Station
Light Snow Light Snow  
Wind Chill: 20°   Ceiling: 600
Heat Index: 33°   Visibility: 1.7mi
Dew Point: 32°   Wind: 29mph
Humidity: 95%   Direction: 310°NW
Pressure: 29.35"   Gusts: NA
Location:  42.55°N, 93.05°W
Report Text: KIFA 240415Z AUTO 31025KT 1 3/4SM -SN OVC006 01/00 A2935 RMK AO2 T00070000
Loading
Personal Weather Stations






























Interactive Weather Map New forecast layout! Learn more

10-Day Weather Forecast

Advertisements
Track Severe Weather on mobile